Springdale, Canada
Current Conditions -  °F | °C
As of 7:00 PM on Monday 20 Oct 2014 (Local Time) from CYDF Reporting Station
Rain Showers Rain Showers  
Wind Chill: 36°   Ceiling: 2300
Heat Index: 45°   Visibility: 12mi
Dew Point: 37°   Wind: 22mph
Humidity: 76%   Direction: 220°SW
Pressure: 29.41"   Gusts: 39mph
Location:  49.48°N, 56.1°W
Report Text: CYDF 202100Z 22019G34KT 12SM -SHRA BKN023 07/03 A2941 RMK SC7 SLP961
Loading
Personal Weather Stations






























Interactive Weather Map
Tropical Storm Tracking
New forecast layout! Learn more

10-Day Weather Forecast

Advertisements
Track Severe Weather on mobile